createdAt,value
2022-12-25T00:01:23.519Z,6.27
2022-12-25T00:03:51.248Z,5.87
2022-12-25T00:06:18.959Z,6.20
2022-12-25T00:08:45.641Z,7.27
2022-12-25T00:11:19.475Z,6.37
2022-12-25T00:13:47.090Z,6.47
2022-12-25T00:16:18.053Z,5.47
2022-12-25T00:18:45.402Z,5.97
2022-12-25T00:21:12.710Z,5.93
2022-12-25T00:23:40.047Z,5.57
2022-12-25T00:26:08.718Z,6.07
2022-12-25T00:28:36.020Z,7.50
2022-12-25T00:31:17.225Z,5.90
2022-12-25T00:33:45.775Z,5.97
2022-12-25T00:36:14.071Z,5.13
2022-12-25T00:38:41.271Z,5.80
2022-12-25T00:41:13.041Z,5.70
2022-12-25T00:43:41.888Z,5.60
2022-12-25T00:46:10.319Z,5.30
2022-12-25T00:48:37.179Z,6.40
2022-12-25T00:51:07.440Z,5.90
2022-12-25T00:53:34.083Z,5.90
2022-12-25T00:56:04.731Z,5.67
2022-12-25T00:58:32.707Z,4.77
2022-12-25T01:00:59.729Z,5.70
2022-12-25T01:03:26.664Z,6.20
2022-12-25T01:06:04.007Z,5.50
2022-12-25T01:08:33.957Z,4.67
2022-12-25T01:11:04.420Z,6.40
2022-12-25T01:13:32.234Z,4.83
2022-12-25T01:15:58.897Z,5.10
2022-12-25T01:18:25.897Z,5.20
2022-12-25T01:20:52.540Z,5.03
2022-12-25T01:23:19.154Z,4.93
2022-12-25T01:25:45.792Z,4.23
2022-12-25T01:28:12.855Z,4.60
2022-12-25T01:30:39.765Z,5.40
2022-12-25T01:33:06.368Z,6.17
2022-12-25T01:35:32.961Z,5.00
2022-12-25T01:37:59.583Z,4.23
2022-12-25T01:40:26.221Z,5.57
2022-12-25T01:42:52.825Z,4.87
2022-12-25T01:45:33.741Z,5.13
2022-12-25T01:48:08.282Z,4.60
2022-12-25T01:50:37.897Z,5.20
2022-12-25T01:53:05.506Z,4.90
2022-12-25T01:55:32.960Z,4.90
2022-12-25T01:57:59.605Z,5.00
2022-12-25T02:00:26.274Z,5.37
2022-12-25T02:02:53.046Z,4.37
2022-12-25T02:05:31.959Z,5.67
2022-12-25T02:08:04.089Z,4.73
2022-12-25T02:10:30.707Z,4.87
2022-12-25T02:12:57.664Z,4.67
2022-12-25T02:15:34.152Z,4.60
2022-12-25T02:18:37.278Z,4.60
2022-12-25T02:21:45.767Z,4.37
2022-12-25T02:24:34.245Z,5.07
2022-12-25T02:27:07.309Z,4.67
2022-12-25T02:29:59.806Z,5.40
2022-12-25T02:32:43.084Z,4.27
2022-12-25T02:35:21.888Z,5.23
2022-12-25T02:38:06.118Z,5.57
2022-12-25T02:40:42.041Z,5.53
2022-12-25T02:43:34.365Z,5.77
2022-12-25T02:46:24.544Z,4.60
2022-12-25T02:49:15.839Z,5.10
2022-12-25T02:52:06.970Z,4.27
2022-12-25T02:55:07.378Z,4.93
2022-12-25T02:58:14.910Z,4.83
2022-12-25T03:01:04.424Z,6.20
2022-12-25T03:03:52.995Z,5.00
2022-12-25T03:06:40.840Z,4.80
2022-12-25T03:09:33.376Z,5.47
2022-12-25T03:12:14.278Z,5.70
2022-12-25T03:14:59.604Z,4.70
2022-12-25T03:17:26.557Z,7.10
2022-12-25T03:20:11.634Z,5.50
2022-12-25T03:23:01.105Z,4.90
2022-12-25T03:25:47.134Z,5.40
2022-12-25T03:28:14.269Z,5.03
2022-12-25T03:31:13.047Z,5.60
2022-12-25T03:34:15.303Z,4.40
2022-12-25T03:37:13.493Z,4.93
2022-12-25T03:39:55.172Z,5.43
2022-12-25T03:43:01.805Z,4.33
2022-12-25T03:45:57.757Z,6.70
2022-12-25T03:48:45.167Z,5.10
2022-12-25T03:51:33.926Z,5.70
2022-12-25T03:54:23.239Z,6.20
2022-12-25T03:57:08.841Z,4.70
2022-12-25T03:59:54.342Z,5.30
2022-12-25T04:02:40.217Z,5.43
2022-12-25T04:05:25.770Z,5.47
2022-12-25T04:08:11.186Z,5.37
2022-12-25T04:10:56.395Z,4.70
2022-12-25T04:13:41.799Z,4.07
2022-12-25T04:16:27.455Z,5.90
2022-12-25T04:19:12.547Z,6.13
2022-12-25T04:21:58.082Z,5.60
2022-12-25T04:24:43.314Z,5.90
2022-12-25T04:27:28.776Z,6.03
2022-12-25T04:30:14.191Z,5.00
2022-12-25T04:32:59.697Z,5.17
2022-12-25T04:35:45.657Z,4.57
2022-12-25T04:38:12.269Z,6.70
2022-12-25T04:40:38.871Z,5.40
2022-12-25T04:43:05.502Z,4.60
2022-12-25T04:45:32.132Z,4.67
2022-12-25T04:48:01.663Z,5.10
2022-12-25T04:50:28.284Z,4.57
2022-12-25T04:52:54.924Z,6.63
2022-12-25T04:55:21.690Z,5.07
2022-12-25T04:57:48.472Z,4.93
2022-12-25T05:00:15.440Z,4.60
2022-12-25T05:02:42.218Z,4.30
2022-12-25T05:05:09.107Z,4.43
2022-12-25T05:07:35.708Z,4.33
2022-12-25T05:10:02.339Z,3.87
2022-12-25T05:12:28.942Z,4.20
2022-12-25T05:14:55.533Z,3.60
2022-12-25T05:17:22.156Z,3.93
2022-12-25T05:19:48.750Z,5.23
2022-12-25T05:22:15.417Z,3.50
2022-12-25T05:24:42.034Z,4.20
2022-12-25T05:27:08.644Z,3.93
2022-12-25T05:29:35.264Z,4.37
2022-12-25T05:32:02.171Z,4.10
2022-12-25T05:34:28.783Z,4.20
2022-12-25T05:36:56.516Z,3.13
2022-12-25T05:39:23.499Z,4.60
2022-12-25T05:41:50.270Z,3.90
2022-12-25T05:44:17.135Z,3.53
2022-12-25T05:46:43.873Z,3.67
2022-12-25T05:49:10.529Z,4.00
2022-12-25T05:51:37.215Z,3.70
2022-12-25T05:54:04.106Z,3.47
2022-12-25T05:56:30.712Z,3.57
2022-12-25T05:58:57.316Z,5.07
2022-12-25T06:01:27.512Z,4.40
2022-12-25T06:03:54.492Z,5.70
2022-12-25T06:06:21.167Z,3.17
2022-12-25T06:08:47.780Z,4.87
2022-12-25T06:11:15.566Z,4.10
2022-12-25T06:13:42.385Z,3.80
2022-12-25T06:16:11.255Z,4.00
2022-12-25T06:18:40.877Z,4.30
2022-12-25T06:21:09.264Z,3.80
2022-12-25T06:23:37.344Z,4.70
2022-12-25T06:26:07.149Z,4.97
2022-12-25T06:28:34.141Z,4.03
2022-12-25T06:31:07.418Z,3.70
2022-12-25T06:33:34.113Z,3.53
2022-12-25T06:36:05.377Z,3.30
2022-12-25T06:38:31.993Z,4.63
2022-12-25T06:41:07.156Z,4.70
2022-12-25T06:43:34.233Z,3.50
2022-12-25T06:46:10.268Z,3.13
2022-12-25T06:48:38.793Z,4.10
2022-12-25T06:51:06.900Z,3.10
2022-12-25T06:53:39.825Z,3.87
2022-12-25T06:56:09.962Z,4.30
2022-12-25T06:58:36.572Z,3.80
2022-12-25T07:01:15.048Z,4.73
2022-12-25T07:03:43.895Z,4.37
2022-12-25T07:06:10.579Z,6.47
2022-12-25T07:08:37.344Z,4.20
2022-12-25T07:11:04.298Z,4.53
2022-12-25T07:13:30.896Z,7.10
2022-12-25T07:16:03.068Z,5.47
2022-12-25T07:18:31.169Z,5.23
2022-12-25T07:20:59.630Z,5.33
2022-12-25T07:23:26.972Z,4.93
2022-12-25T07:25:57.652Z,5.67
2022-12-25T07:28:24.812Z,5.70
2022-12-25T07:30:51.689Z,6.70
2022-12-25T07:33:19.111Z,6.30
2022-12-25T07:35:46.426Z,6.13
2022-12-25T07:38:13.141Z,6.77
2022-12-25T07:40:39.759Z,5.73
2022-12-25T07:43:06.402Z,5.60
2022-12-25T07:45:33.657Z,6.20
2022-12-25T07:48:05.260Z,5.77
2022-12-25T07:50:33.258Z,5.57
2022-12-25T07:52:59.953Z,5.07
2022-12-25T07:55:26.612Z,6.50
2022-12-25T07:57:53.305Z,5.90
2022-12-25T08:00:20.617Z,6.80
2022-12-25T08:02:50.399Z,6.97
2022-12-25T08:05:17.489Z,6.10
2022-12-25T08:07:44.152Z,6.20
2022-12-25T08:10:11.169Z,6.40
2022-12-25T08:12:37.769Z,5.30
2022-12-25T08:15:04.846Z,5.37
2022-12-25T08:17:31.522Z,6.50
2022-12-25T08:19:58.123Z,5.53
2022-12-25T08:22:24.731Z,6.53
2022-12-25T08:24:51.351Z,5.37
2022-12-25T08:27:18.191Z,5.53
2022-12-25T08:29:44.965Z,5.40
2022-12-25T08:32:11.794Z,5.90
2022-12-25T08:34:38.785Z,5.27
2022-12-25T08:37:05.446Z,5.53
2022-12-25T08:39:32.281Z,5.63
2022-12-25T08:41:58.888Z,5.17
2022-12-25T08:44:25.527Z,5.87
2022-12-25T08:46:52.146Z,5.27
2022-12-25T08:49:19.246Z,5.17
2022-12-25T08:51:45.961Z,6.33
2022-12-25T08:54:12.558Z,5.30
2022-12-25T08:56:39.217Z,6.37
2022-12-25T08:59:05.848Z,4.67
2022-12-25T09:01:32.524Z,5.47
2022-12-25T09:03:59.253Z,5.30
2022-12-25T09:06:25.849Z,5.17
2022-12-25T09:08:52.544Z,5.20
2022-12-25T09:11:20.271Z,5.00
2022-12-25T09:13:48.189Z,5.40
2022-12-25T09:16:18.725Z,4.13
2022-12-25T09:18:45.572Z,4.70
2022-12-25T09:21:14.277Z,4.50
2022-12-25T09:23:41.325Z,4.73
2022-12-25T09:26:12.425Z,5.57
2022-12-25T09:28:39.199Z,5.10
2022-12-25T09:31:06.275Z,5.37
2022-12-25T09:33:33.365Z,6.17
2022-12-25T09:36:02.592Z,5.33
2022-12-25T09:38:29.806Z,6.30
2022-12-25T09:41:04.983Z,5.83
2022-12-25T09:43:37.450Z,5.53
2022-12-25T09:46:07.415Z,5.27
2022-12-25T09:48:36.932Z,5.40
2022-12-25T09:51:13.274Z,5.80
2022-12-25T09:53:46.649Z,5.33
2022-12-25T09:56:25.368Z,4.47
2022-12-25T09:58:52.953Z,4.87
2022-12-25T10:01:44.619Z,6.27
2022-12-25T10:04:47.628Z,4.73
2022-12-25T10:07:38.323Z,5.50
2022-12-25T10:10:19.982Z,5.17
2022-12-25T10:13:36.967Z,4.30
2022-12-25T10:16:34.294Z,4.67
2022-12-25T10:19:17.482Z,4.57
2022-12-25T10:21:44.582Z,4.63
2022-12-25T10:24:32.829Z,4.37
2022-12-25T10:27:04.503Z,4.47
2022-12-25T10:29:34.708Z,4.67
2022-12-25T10:32:01.457Z,4.27
2022-12-25T10:34:28.774Z,4.63
2022-12-25T10:36:55.660Z,4.47
2022-12-25T10:39:26.518Z,4.60
2022-12-25T10:42:29.497Z,4.00
2022-12-25T10:45:01.674Z,5.00
2022-12-25T10:47:34.468Z,4.70
2022-12-25T10:50:24.102Z,4.37
2022-12-25T10:53:00.999Z,4.30
2022-12-25T10:55:29.493Z,4.70
2022-12-25T10:57:57.721Z,5.37
2022-12-25T11:00:30.624Z,4.50
2022-12-25T11:02:58.190Z,4.97
2022-12-25T11:05:33.527Z,5.30
2022-12-25T11:08:02.178Z,5.23
2022-12-25T11:10:33.988Z,5.27
2022-12-25T11:13:02.431Z,5.30
2022-12-25T11:15:40.290Z,5.37
2022-12-25T11:18:27.777Z,5.10
2022-12-25T11:21:00.122Z,5.13
2022-12-25T11:23:29.031Z,5.20
2022-12-25T11:26:04.468Z,5.23
2022-12-25T11:28:35.025Z,5.53
2022-12-25T11:31:08.296Z,5.23
2022-12-25T11:33:41.297Z,4.97
2022-12-25T11:36:43.105Z,5.73
2022-12-25T11:39:28.326Z,7.27
2022-12-25T11:42:21.530Z,6.70
2022-12-25T11:45:00.204Z,6.40
2022-12-25T11:47:46.996Z,6.80
2022-12-25T11:50:20.124Z,6.50
2022-12-25T11:52:48.029Z,6.33
2022-12-25T11:55:23.825Z,7.40
2022-12-25T11:57:55.030Z,7.57
2022-12-25T12:00:22.040Z,8.07
2022-12-25T12:03:00.168Z,7.63
2022-12-25T12:05:37.296Z,7.00
2022-12-25T12:08:05.542Z,8.20
2022-12-25T12:11:15.650Z,7.20
2022-12-25T12:14:11.418Z,8.13
2022-12-25T12:16:38.384Z,7.10
2022-12-25T12:19:13.899Z,6.87
2022-12-25T12:21:41.404Z,6.80
2022-12-25T12:24:20.522Z,7.13
2022-12-25T12:26:58.867Z,7.70
2022-12-25T12:29:29.113Z,7.30
2022-12-25T12:32:00.599Z,7.10
2022-12-25T12:34:33.016Z,6.67
2022-12-25T12:37:05.010Z,7.50
2022-12-25T12:39:36.394Z,7.17
2022-12-25T12:42:11.918Z,6.50
2022-12-25T12:44:38.734Z,7.10
2022-12-25T12:47:05.399Z,6.70
2022-12-25T12:49:33.549Z,6.73
2022-12-25T12:52:25.115Z,6.77
2022-12-25T12:54:57.003Z,7.53
2022-12-25T12:57:32.509Z,7.00
2022-12-25T13:00:08.551Z,7.27
2022-12-25T13:02:57.877Z,6.70
2022-12-25T13:05:37.917Z,6.87
2022-12-25T13:08:28.152Z,6.60
2022-12-25T13:11:26.561Z,7.27
2022-12-25T13:13:55.204Z,7.23
2022-12-25T13:16:28.004Z,6.80
2022-12-25T13:18:56.481Z,7.87
2022-12-25T13:21:26.136Z,7.40
2022-12-25T13:24:01.092Z,7.90
2022-12-25T13:26:28.741Z,7.00
2022-12-25T13:28:56.167Z,8.03
2022-12-25T13:31:25.917Z,6.63
2022-12-25T13:33:59.942Z,7.37
2022-12-25T13:36:28.529Z,6.10
2022-12-25T13:38:58.756Z,7.87
2022-12-25T13:41:53.142Z,7.17
2022-12-25T13:44:23.500Z,6.60
2022-12-25T13:46:50.310Z,7.70
2022-12-25T13:49:20.407Z,6.37
2022-12-25T13:51:48.363Z,5.83
2022-12-25T13:54:16.475Z,6.63
2022-12-25T13:56:54.283Z,7.30
2022-12-25T13:59:25.603Z,6.60
2022-12-25T14:01:53.982Z,6.60
2022-12-25T14:04:23.440Z,7.13
2022-12-25T14:06:51.780Z,7.33
2022-12-25T14:09:19.211Z,6.57
2022-12-25T14:11:50.150Z,6.80
2022-12-25T14:14:23.002Z,6.07
2022-12-25T14:16:53.234Z,7.20
2022-12-25T14:19:30.153Z,6.40
2022-12-25T14:22:18.770Z,6.30
2022-12-25T14:24:45.568Z,7.20
2022-12-25T14:27:20.288Z,6.70
2022-12-25T14:29:49.299Z,5.50
2022-12-25T14:32:21.970Z,6.57
2022-12-25T14:34:53.727Z,5.93
2022-12-25T14:37:23.733Z,6.57
2022-12-25T14:40:18.391Z,6.00
2022-12-25T14:42:57.965Z,5.50
2022-12-25T14:45:38.650Z,5.67
2022-12-25T14:48:24.600Z,6.70
2022-12-25T14:51:08.647Z,5.23
2022-12-25T14:53:47.329Z,6.67
2022-12-25T14:56:20.071Z,6.30
2022-12-25T14:58:53.568Z,5.40
2022-12-25T15:01:26.920Z,4.50
2022-12-25T15:04:05.359Z,5.40
2022-12-25T15:06:32.511Z,5.23
2022-12-25T15:09:06.355Z,5.67
2022-12-25T15:11:32.991Z,5.17
2022-12-25T15:13:59.648Z,5.30
2022-12-25T15:16:29.551Z,5.63
2022-12-25T15:18:56.581Z,6.07
2022-12-25T15:21:30.192Z,5.10
2022-12-25T15:23:58.851Z,5.00
2022-12-25T15:26:27.386Z,4.80
2022-12-25T15:28:54.057Z,4.40
2022-12-25T15:31:26.425Z,4.73
2022-12-25T15:33:55.245Z,5.37
2022-12-25T15:36:23.263Z,5.03
2022-12-25T15:38:50.268Z,5.60
2022-12-25T15:41:43.542Z,4.47
2022-12-25T15:44:11.820Z,4.93
2022-12-25T15:46:38.828Z,5.33
2022-12-25T15:49:05.635Z,6.10
2022-12-25T15:51:32.376Z,5.00
2022-12-25T15:53:59.515Z,5.83
2022-12-25T15:56:27.264Z,5.10
2022-12-25T15:58:53.944Z,5.07
2022-12-25T16:01:21.111Z,5.43
2022-12-25T16:03:48.108Z,5.30
2022-12-25T16:06:16.462Z,5.20
2022-12-25T16:08:43.454Z,5.00
2022-12-25T16:11:10.632Z,5.30
2022-12-25T16:13:37.539Z,5.00
2022-12-25T16:16:05.028Z,4.70
2022-12-25T16:18:32.080Z,5.20
2022-12-25T16:20:59.596Z,5.50
2022-12-25T16:23:26.392Z,5.90
2022-12-25T16:25:53.095Z,5.53
2022-12-25T16:28:19.757Z,5.40
2022-12-25T16:30:46.578Z,5.83
2022-12-25T16:33:13.346Z,6.07
2022-12-25T16:35:40.011Z,6.07
2022-12-25T16:38:06.920Z,4.87
2022-12-25T16:40:33.910Z,5.17
2022-12-25T16:43:00.552Z,5.10
2022-12-25T16:45:27.204Z,4.60
2022-12-25T16:47:53.892Z,4.97
2022-12-25T16:50:20.669Z,5.23
2022-12-25T16:52:47.294Z,4.47
2022-12-25T16:55:13.984Z,5.20
2022-12-25T16:57:40.585Z,5.00
2022-12-25T17:00:08.622Z,5.43
2022-12-25T17:02:35.336Z,5.83
2022-12-25T17:05:02.245Z,5.13
2022-12-25T17:07:28.852Z,4.60
2022-12-25T17:09:57.055Z,5.43
2022-12-25T17:12:23.725Z,4.80
2022-12-25T17:14:50.716Z,5.37
2022-12-25T17:17:18.446Z,4.60
2022-12-25T17:19:45.175Z,5.73
2022-12-25T17:22:11.909Z,4.77
2022-12-25T17:24:40.906Z,4.60
2022-12-25T17:27:09.137Z,4.50
2022-12-25T17:29:38.875Z,5.27
2022-12-25T17:32:07.841Z,4.83
2022-12-25T17:34:34.680Z,4.50
2022-12-25T17:37:01.321Z,5.43
2022-12-25T17:39:28.174Z,4.10
2022-12-25T17:41:55.079Z,4.80
2022-12-25T17:44:22.311Z,4.40
2022-12-25T17:46:49.799Z,4.30
2022-12-25T17:49:19.593Z,5.03
2022-12-25T17:51:46.865Z,4.50
2022-12-25T17:54:13.703Z,4.23
2022-12-25T17:56:40.373Z,4.40
2022-12-25T17:59:09.481Z,4.27
2022-12-25T18:01:38.500Z,4.37
2022-12-25T18:04:06.122Z,4.53
2022-12-25T18:06:35.669Z,4.97
2022-12-25T18:09:03.118Z,4.33
2022-12-25T18:11:32.983Z,4.83
2022-12-25T18:14:05.474Z,4.70
2022-12-25T18:16:35.252Z,5.30
2022-12-25T18:19:02.413Z,4.30
2022-12-25T18:21:29.620Z,3.67
2022-12-25T18:23:56.234Z,4.67
2022-12-25T18:26:23.264Z,4.10
2022-12-25T18:28:50.288Z,3.97
2022-12-25T18:31:22.052Z,4.40
2022-12-25T18:33:49.363Z,4.37
2022-12-25T18:36:20.006Z,4.63
2022-12-25T18:38:48.181Z,4.30
2022-12-25T18:41:15.145Z,3.97
2022-12-25T18:43:52.840Z,4.40
2022-12-25T18:46:22.299Z,4.40
2022-12-25T18:48:49.330Z,4.83
2022-12-25T18:51:15.990Z,5.20
2022-12-25T18:53:42.792Z,6.10
2022-12-25T18:56:12.464Z,4.83
2022-12-25T18:58:39.347Z,5.03
2022-12-25T19:01:17.377Z,5.37
2022-12-25T19:03:45.350Z,4.77
2022-12-25T19:06:20.208Z,4.80
2022-12-25T19:08:47.080Z,4.20
2022-12-25T19:11:14.233Z,5.20
2022-12-25T19:13:41.108Z,4.97
2022-12-25T19:16:07.984Z,5.40
2022-12-25T19:18:34.658Z,5.60
2022-12-25T19:21:02.918Z,5.50
2022-12-25T19:23:29.617Z,4.50
2022-12-25T19:25:56.330Z,4.77
2022-12-25T19:28:24.876Z,5.20
2022-12-25T19:30:53.794Z,4.63
2022-12-25T19:33:22.891Z,4.33
2022-12-25T19:35:49.963Z,4.80
2022-12-25T19:38:16.600Z,4.60
2022-12-25T19:40:59.921Z,5.80
2022-12-25T19:43:32.572Z,4.50
2022-12-25T19:46:00.313Z,4.50
2022-12-25T19:48:27.288Z,4.57
2022-12-25T19:50:54.635Z,3.97
2022-12-25T19:53:23.620Z,5.30
2022-12-25T19:55:52.366Z,5.30
2022-12-25T19:58:23.545Z,4.73
2022-12-25T20:01:01.342Z,5.10
2022-12-25T20:03:28.432Z,4.10
2022-12-25T20:05:56.422Z,4.50
2022-12-25T20:08:25.355Z,4.83
2022-12-25T20:10:52.402Z,4.00
2022-12-25T20:13:19.483Z,4.30
2022-12-25T20:15:46.832Z,5.43
2022-12-25T20:18:13.710Z,4.33
2022-12-25T20:20:40.361Z,4.33
2022-12-25T20:23:06.979Z,4.10
2022-12-25T20:25:33.584Z,5.00
2022-12-25T20:28:00.186Z,4.10
2022-12-25T20:30:26.791Z,4.90
2022-12-25T20:32:53.450Z,4.00
2022-12-25T20:35:20.082Z,4.17
2022-12-25T20:37:46.762Z,4.53
2022-12-25T20:40:13.517Z,4.70
2022-12-25T20:42:40.146Z,4.50
2022-12-25T20:45:07.512Z,4.50
2022-12-25T20:47:35.140Z,3.93
2022-12-25T20:50:02.250Z,4.30
2022-12-25T20:52:28.884Z,4.37
2022-12-25T20:54:55.643Z,4.30
2022-12-25T20:57:22.521Z,4.50
2022-12-25T20:59:49.483Z,4.23
2022-12-25T21:02:34.709Z,4.30
2022-12-25T21:05:03.964Z,5.20
2022-12-25T21:07:30.669Z,4.03
2022-12-25T21:09:57.285Z,4.17
2022-12-25T21:12:23.889Z,6.40
2022-12-25T21:14:50.624Z,4.47
2022-12-25T21:17:17.755Z,4.10
2022-12-25T21:19:44.422Z,3.90
2022-12-25T21:22:11.049Z,4.40
2022-12-25T21:24:37.717Z,3.77
2022-12-25T21:27:04.370Z,3.70
2022-12-25T21:29:31.083Z,4.17
2022-12-25T21:32:16.281Z,4.40
2022-12-25T21:34:42.904Z,4.00
2022-12-25T21:37:09.529Z,4.37
2022-12-25T21:39:36.135Z,3.60
2022-12-25T21:42:04.474Z,3.10
2022-12-25T21:44:31.285Z,3.40
2022-12-25T21:46:58.110Z,3.70
2022-12-25T21:49:43.650Z,3.60
2022-12-25T21:52:10.812Z,3.43
2022-12-25T21:54:37.688Z,4.13
2022-12-25T21:57:05.255Z,3.50
2022-12-25T21:59:31.868Z,3.60
2022-12-25T22:01:59.433Z,4.70
2022-12-25T22:04:26.491Z,4.20
2022-12-25T22:07:11.645Z,3.77
2022-12-25T22:09:38.271Z,3.43
2022-12-25T22:12:27.375Z,4.00
2022-12-25T22:15:03.010Z,3.50
2022-12-25T22:17:51.156Z,3.43
2022-12-25T22:20:30.618Z,3.50
2022-12-25T22:22:58.022Z,2.90
2022-12-25T22:25:24.781Z,3.37
2022-12-25T22:27:51.939Z,3.43
2022-12-25T22:30:21.363Z,3.30
2022-12-25T22:32:48.665Z,2.73
2022-12-25T22:35:16.208Z,3.30
2022-12-25T22:37:43.818Z,3.60
2022-12-25T22:40:16.410Z,3.77
2022-12-25T22:42:43.603Z,2.80
2022-12-25T22:45:11.431Z,3.73
2022-12-25T22:47:38.510Z,2.90
2022-12-25T22:50:06.755Z,2.97
2022-12-25T22:52:33.635Z,3.40
2022-12-25T22:55:00.337Z,3.60
2022-12-25T22:57:26.971Z,3.30
2022-12-25T22:59:53.855Z,2.80
2022-12-25T23:02:20.955Z,3.90
2022-12-25T23:04:47.877Z,3.47
2022-12-25T23:07:15.454Z,3.80
2022-12-25T23:09:43.118Z,3.47
2022-12-25T23:12:29.879Z,3.77
2022-12-25T23:14:57.537Z,3.20
2022-12-25T23:17:43.318Z,2.97
2022-12-25T23:20:28.817Z,3.40
2022-12-25T23:23:14.234Z,3.43
2022-12-25T23:25:59.597Z,2.80
2022-12-25T23:28:45.042Z,2.30
2022-12-25T23:31:11.725Z,2.13
2022-12-25T23:33:38.404Z,2.67
2022-12-25T23:36:05.619Z,2.17
2022-12-25T23:38:32.215Z,2.70
2022-12-25T23:40:58.897Z,2.40
2022-12-25T23:43:25.795Z,2.53
2022-12-25T23:45:52.757Z,2.43
2022-12-25T23:48:19.390Z,2.20
2022-12-25T23:50:46.009Z,2.53
2022-12-25T23:53:12.878Z,2.40
2022-12-25T23:55:42.007Z,3.00
2022-12-25T23:58:08.815Z,2.70
